Time;durP1;ratioP1;P1;durP2;ratioP2;P2;SDS_P1;SDS_P2;PMS_P1;PMS_P2;Temp;Humidity;BMP_temperature;BMP_pressure;BME280_temperature;BME280_humidity;BME280_pressure;Samples;Min_cycle;Max_cycle;Signal;HPM_P1;HPM_P2
2020/12/25 00:02:08;;;;;;;0.88;0.13;;;2.70;84.50;;;;;;5013526;28;20057;-79
2020/12/25 00:04:35;;;;;;;1.40;0.20;;;2.60;84.50;;;;;;5013226;28;20446;-79
2020/12/25 00:07:01;;;;;;;0.30;0.20;;;2.70;84.00;;;;;;5013188;28;20104;-78
2020/12/25 00:09:26;;;;;;;1.75;0.20;;;2.60;83.90;;;;;;5013330;28;20018;-78
2020/12/25 00:11:52;;;;;;;0.20;0.10;;;2.60;83.90;;;;;;5013312;28;20026;-79
2020/12/25 00:14:18;;;;;;;0.82;0.20;;;2.60;83.70;;;;;;5013236;28;20022;-79
2020/12/25 00:16:44;;;;;;;0.10;0.10;;;2.50;83.70;;;;;;5013111;28;20026;-79
2020/12/25 00:19:10;;;;;;;0.10;0.10;;;2.40;84.20;;;;;;5013173;28;20030;-80
2020/12/25 00:21:37;;;;;;;0.30;0.10;;;2.50;84.60;;;;;;5013104;28;20021;-79
2020/12/25 00:24:05;;;;;;;0.20;0.20;;;2.30;84.80;;;;;;5012406;28;20041;-79
2020/12/25 00:26:33;;;;;;;0.10;0.10;;;2.20;85.00;;;;;;5012933;28;20044;-79
2020/12/25 00:29:00;;;;;;;0.10;0.10;;;2.20;85.70;;;;;;5013209;28;20022;-80
2020/12/25 00:31:28;;;;;;;0.43;0.20;;;2.10;86.30;;;;;;5013271;28;20109;-79
2020/12/25 00:33:58;;;;;;;0.15;0.10;;;2.20;86.50;;;;;;5013375;28;20105;-78
2020/12/25 00:36:33;;;;;;;0.10;0.10;;;2.20;86.80;;;;;;5013359;28;20060;-78
2020/12/25 00:39:00;;;;;;;0.20;0.20;;;2.30;87.00;;;;;;5013355;28;20025;-79
2020/12/25 00:41:26;;;;;;;0.20;0.20;;;2.40;86.30;;;;;;5013228;28;20048;-78
2020/12/25 00:43:51;;;;;;;0.28;0.28;;;2.60;85.70;;;;;;5011799;28;20105;-78
2020/12/25 00:46:17;;;;;;;0.20;0.20;;;2.60;85.20;;;;;;5011622;28;20140;-78
2020/12/25 00:48:43;;;;;;;0.30;0.25;;;2.70;85.00;;;;;;5012943;28;20049;-79
2020/12/25 00:51:19;;;;;;;0.40;0.30;;;2.80;84.70;;;;;;5011732;28;20490;-78
2020/12/25 00:53:45;;;;;;;0.20;0.10;;;2.80;83.70;;;;;;5013316;28;20033;-79
2020/12/25 00:56:12;;;;;;;0.20;0.13;;;2.80;83.10;;;;;;5014483;28;20028;-79
2020/12/25 00:58:39;;;;;;;0.03;0.03;;;2.80;82.50;;;;;;5013130;28;20014;-79
2020/12/25 01:01:05;;;;;;;0.20;0.10;;;2.90;82.00;;;;;;5011946;28;20030;-79
2020/12/25 01:03:32;;;;;;;0.35;0.17;;;2.80;81.80;;;;;;5013015;28;20022;-79
2020/12/25 01:05:57;;;;;;;0.20;0.10;;;2.80;81.50;;;;;;5012702;28;20072;-79
2020/12/25 01:08:23;;;;;;;0.00;0.00;;;2.70;81.50;;;;;;5012539;28;20143;-79
2020/12/25 01:10:48;;;;;;;0.13;0.10;;;2.70;81.30;;;;;;5012853;28;20029;-78
2020/12/25 01:13:15;;;;;;;0.10;0.10;;;2.70;82.30;;;;;;5012719;28;20099;-78
2020/12/25 01:15:41;;;;;;;0.20;0.10;;;2.60;81.40;;;;;;5012824;28;20402;-78
2020/12/25 01:18:07;;;;;;;0.00;0.00;;;2.60;81.70;;;;;;5012774;28;20022;-79
2020/12/25 01:20:34;;;;;;;0.20;0.20;;;2.70;82.00;;;;;;5012755;28;20029;-78
2020/12/25 01:23:00;;;;;;;1.48;0.20;;;2.70;81.30;;;;;;5011500;28;20386;-78
2020/12/25 01:25:25;;;;;;;0.00;0.00;;;2.70;80.70;;;;;;5012471;28;20041;-78
2020/12/25 01:27:51;;;;;;;1.67;0.15;;;2.70;80.70;;;;;;5012554;28;20018;-78
2020/12/25 01:30:18;;;;;;;0.20;0.10;;;2.70;80.30;;;;;;5011595;28;20521;-78
2020/12/25 01:32:43;;;;;;;0.30;0.10;;;2.70;80.40;;;;;;5012624;28;20105;-78
2020/12/25 01:35:09;;;;;;;0.43;0.30;;;2.70;80.70;;;;;;5014404;28;20478;-78
2020/12/25 01:37:34;;;;;;;0.45;0.30;;;2.60;81.40;;;;;;5016390;28;20441;-78
2020/12/25 01:40:00;;;;;;;0.20;0.20;;;2.60;81.40;;;;;;5016029;28;20026;-78
2020/12/25 01:42:26;;;;;;;0.13;0.13;;;2.60;81.30;;;;;;5014929;28;20505;-78
2020/12/25 01:44:51;;;;;;;0.10;0.10;;;2.60;80.60;;;;;;5016130;28;20030;-78
2020/12/25 01:47:19;;;;;;;1.35;0.20;;;2.60;80.40;;;;;;5016317;28;20068;-78
2020/12/25 01:49:45;;;;;;;0.10;0.10;;;2.70;80.50;;;;;;5016014;28;20139;-78
2020/12/25 01:52:12;;;;;;;0.22;0.22;;;2.70;80.80;;;;;;5016164;28;20094;-81
2020/12/25 01:54:39;;;;;;;0.00;0.00;;;2.70;80.50;;;;;;5016058;28;20018;-78
2020/12/25 01:57:05;;;;;;;0.47;0.20;;;2.70;80.10;;;;;;5016135;28;20410;-79
2020/12/25 01:59:31;;;;;;;0.35;0.17;;;2.80;80.10;;;;;;5015950;28;20049;-81
2020/12/25 02:01:58;;;;;;;0.35;0.10;;;2.80;80.60;;;;;;5015385;28;20014;-77
2020/12/25 02:04:24;;;;;;;0.63;0.10;;;2.80;79.80;;;;;;5016753;28;20040;-80
2020/12/25 02:06:51;;;;;;;0.10;0.10;;;2.80;79.70;;;;;;5019659;28;20124;-79
2020/12/25 02:09:17;;;;;;;0.60;0.10;;;2.90;79.70;;;;;;5021698;28;20026;-78
2020/12/25 02:11:43;;;;;;;0.57;0.10;;;2.90;79.70;;;;;;5018464;28;20055;-77
2020/12/25 02:14:09;;;;;;;0.10;0.10;;;2.90;80.50;;;;;;5020285;28;20049;-78
2020/12/25 02:16:34;;;;;;;0.10;0.10;;;2.90;79.50;;;;;;5017388;28;20030;-76
2020/12/25 02:19:00;;;;;;;0.47;0.20;;;2.80;79.20;;;;;;5015543;28;20030;-80
2020/12/25 02:21:25;;;;;;;0.10;0.10;;;2.70;79.60;;;;;;5015711;28;20057;-80
2020/12/25 02:23:51;;;;;;;0.10;0.10;;;2.80;79.90;;;;;;5016968;28;20525;-80
2020/12/25 02:26:16;;;;;;;0.10;0.10;;;2.80;80.50;;;;;;5014128;28;20502;-80
2020/12/25 02:28:42;;;;;;;0.20;0.20;;;2.70;80.40;;;;;;5015380;28;20387;-80
2020/12/25 02:31:07;;;;;;;0.35;0.10;;;2.60;80.50;;;;;;5015464;28;20037;-80
2020/12/25 02:33:33;;;;;;;0.60;0.20;;;2.60;81.50;;;;;;5015437;28;20029;-81
2020/12/25 02:35:59;;;;;;;0.10;0.10;;;2.60;81.60;;;;;;5015297;28;20037;-80
2020/12/25 02:38:25;;;;;;;0.20;0.20;;;2.60;81.10;;;;;;5013786;28;20017;-80
2020/12/25 02:40:50;;;;;;;0.20;0.10;;;2.50;80.70;;;;;;5015047;28;20368;-78
2020/12/25 02:43:16;;;;;;;0.25;0.22;;;2.40;80.70;;;;;;5015323;28;20080;-79
2020/12/25 02:45:41;;;;;;;0.25;0.10;;;2.40;81.00;;;;;;5014656;28;20112;-78
2020/12/25 02:48:07;;;;;;;1.55;0.40;;;2.50;80.90;;;;;;5014750;28;20022;-78
2020/12/25 02:50:34;;;;;;;0.22;0.20;;;2.50;80.80;;;;;;5015012;28;20080;-78
2020/12/25 02:52:59;;;;;;;0.65;0.35;;;2.50;80.80;;;;;;5015112;28;20108;-79
2020/12/25 02:55:25;;;;;;;0.65;0.20;;;2.40;81.20;;;;;;5014972;28;20050;-79
2020/12/25 02:57:50;;;;;;;0.60;0.30;;;2.50;81.50;;;;;;5015247;28;20033;-76
2020/12/25 03:00:16;;;;;;;0.57;0.30;;;2.60;81.10;;;;;;5014907;28;20022;-78
2020/12/25 03:02:41;;;;;;;0.68;0.38;;;2.60;80.70;;;;;;5014935;28;20033;-78
2020/12/25 03:05:07;;;;;;;1.25;0.25;;;2.60;80.40;;;;;;5014749;28;20101;-77
2020/12/25 03:07:32;;;;;;;0.30;0.30;;;2.60;80.80;;;;;;5014610;28;20112;-78
2020/12/25 03:09:58;;;;;;;0.43;0.30;;;2.60;80.70;;;;;;5014761;28;20053;-77
2020/12/25 03:12:24;;;;;;;0.45;0.25;;;2.70;80.40;;;;;;5014330;28;20033;-77
2020/12/25 03:14:50;;;;;;;0.65;0.28;;;2.70;80.30;;;;;;5014638;28;20099;-77
2020/12/25 03:17:15;;;;;;;0.20;0.20;;;2.60;80.70;;;;;;5014523;28;20413;-77
2020/12/25 03:19:41;;;;;;;0.10;0.10;;;2.70;80.80;;;;;;5014389;28;20076;-77
2020/12/25 03:22:06;;;;;;;0.40;0.28;;;2.70;80.70;;;;;;5014510;28;20026;-77
2020/12/25 03:24:32;;;;;;;0.10;0.10;;;2.70;80.50;;;;;;5014348;28;20034;-77
2020/12/25 03:26:57;;;;;;;0.75;0.20;;;2.80;80.30;;;;;;5014406;28;20092;-78
2020/12/25 03:29:23;;;;;;;0.73;0.40;;;2.80;80.10;;;;;;5014241;28;20097;-78
2020/12/25 03:31:48;;;;;;;0.55;0.13;;;2.90;80.20;;;;;;5014296;28;20470;-77
2020/12/25 03:34:14;;;;;;;0.15;0.15;;;2.70;80.20;;;;;;5014274;28;20029;-77
2020/12/25 03:36:40;;;;;;;0.10;0.10;;;2.70;80.50;;;;;;5014042;28;20109;-76
2020/12/25 03:39:06;;;;;;;1.02;0.20;;;2.80;80.70;;;;;;5013882;28;20029;-77
2020/12/25 03:41:31;;;;;;;0.10;0.10;;;2.80;80.70;;;;;;5014113;28;20550;-77
2020/12/25 03:43:57;;;;;;;0.32;0.32;;;2.70;80.90;;;;;;5014081;28;20029;-77
2020/12/25 03:46:22;;;;;;;0.60;0.30;;;2.60;81.10;;;;;;5013919;28;20037;-76
2020/12/25 03:48:48;;;;;;;0.82;0.70;;;2.60;81.80;;;;;;5013932;28;20367;-78
2020/12/25 03:51:13;;;;;;;0.30;0.30;;;2.50;82.70;;;;;;5013816;28;20100;-77
2020/12/25 03:53:39;;;;;;;0.75;0.60;;;2.50;81.90;;;;;;5013853;28;20029;-77
2020/12/25 03:56:05;;;;;;;2.67;1.48;;;2.50;82.10;;;;;;5013857;28;20133;-77
2020/12/25 03:58:30;;;;;;;3.10;1.65;;;2.60;82.30;;;;;;5012453;28;20018;-78
2020/12/25 04:00:56;;;;;;;1.35;0.52;;;2.70;81.80;;;;;;5013739;28;20037;-78
2020/12/25 04:03:21;;;;;;;2.22;0.73;;;2.70;81.40;;;;;;5013220;28;20619;-80
2020/12/25 04:05:47;;;;;;;1.23;0.73;;;2.70;81.20;;;;;;5013374;28;20030;-79
2020/12/25 04:08:13;;;;;;;0.60;0.60;;;2.80;81.20;;;;;;5013481;28;20049;-81
2020/12/25 04:10:38;;;;;;;0.63;0.60;;;2.80;81.00;;;;;;5013428;28;20026;-81
2020/12/25 04:13:05;;;;;;;1.05;0.77;;;2.80;80.90;;;;;;5013488;28;20029;-82
2020/12/25 04:15:31;;;;;;;1.40;1.10;;;2.80;81.10;;;;;;5013396;28;20046;-81
2020/12/25 04:17:56;;;;;;;0.80;0.68;;;2.80;81.20;;;;;;5013499;28;20474;-81
2020/12/25 04:20:22;;;;;;;0.63;0.57;;;2.90;81.10;;;;;;5013374;28;20044;-81
2020/12/25 04:22:48;;;;;;;0.50;0.50;;;2.90;80.80;;;;;;5012223;28;20037;-81
2020/12/25 04:25:13;;;;;;;0.45;0.45;;;2.90;80.70;;;;;;5013362;28;20030;-80
2020/12/25 04:27:39;;;;;;;0.80;0.60;;;3.00;80.70;;;;;;5013362;28;20037;-79
2020/12/25 04:30:05;;;;;;;0.60;0.60;;;2.90;80.70;;;;;;5012084;28;20529;-82
2020/12/25 04:32:30;;;;;;;2.15;0.70;;;2.80;80.70;;;;;;5013243;28;20025;-81
2020/12/25 04:34:56;;;;;;;1.02;0.70;;;2.80;80.80;;;;;;5013334;28;20494;-81
2020/12/25 04:37:22;;;;;;;2.13;0.95;;;2.90;80.90;;;;;;5013324;28;20084;-78
2020/12/25 04:39:47;;;;;;;1.33;0.90;;;2.90;81.20;;;;;;5011806;28;20033;-78
2020/12/25 04:42:13;;;;;;;1.27;0.73;;;2.80;81.10;;;;;;5013118;28;20022;-78
2020/12/25 04:44:38;;;;;;;0.77;0.70;;;2.80;82.20;;;;;;5013290;28;20034;-78
2020/12/25 04:47:08;;;;;;;0.60;0.60;;;2.80;81.70;;;;;;5013200;28;20477;-78
2020/12/25 04:49:35;;;;;;;1.15;1.05;;;2.80;82.10;;;;;;5013078;28;20022;-78
2020/12/25 04:52:01;;;;;;;0.63;0.60;;;2.70;82.70;;;;;;5013300;28;20026;-78
2020/12/25 04:54:27;;;;;;;5.78;2.45;;;2.80;82.80;;;;;;5011791;28;20088;-78
2020/12/25 04:56:52;;;;;;;0.80;0.80;;;2.80;82.80;;;;;;5011914;28;20029;-78
2020/12/25 04:59:18;;;;;;;0.90;0.80;;;2.90;82.60;;;;;;5013113;28;20064;-78
2020/12/25 05:01:44;;;;;;;0.95;0.80;;;2.80;82.40;;;;;;5013013;28;20049;-77
2020/12/25 05:04:19;;;;;;;1.05;0.90;;;2.80;82.50;;;;;;5012995;28;20022;-80
2020/12/25 05:06:50;;;;;;;0.70;0.70;;;2.70;82.80;;;;;;5011432;28;20046;-79
2020/12/25 05:09:25;;;;;;;1.13;1.02;;;2.70;82.90;;;;;;5012269;28;20029;-80
2020/12/25 05:11:55;;;;;;;2.97;1.00;;;2.70;83.30;;;;;;5016715;28;20034;-79
2020/12/25 05:14:29;;;;;;;0.90;0.90;;;2.60;83.40;;;;;;5015385;28;20022;-79
2020/12/25 05:16:57;;;;;;;3.95;2.08;;;2.70;84.00;;;;;;5016753;28;20068;-79
2020/12/25 05:19:25;;;;;;;4.38;1.45;;;2.70;83.80;;;;;;5015315;28;20045;-79
2020/12/25 05:21:53;;;;;;;0.80;0.70;;;2.80;83.30;;;;;;5016528;28;20073;-80
2020/12/25 05:24:18;;;;;;;0.95;0.52;;;2.80;83.00;;;;;;5016397;28;20018;-80
2020/12/25 05:26:54;;;;;;;2.05;0.80;;;2.80;83.10;;;;;;5016435;28;20486;-79
2020/12/25 05:29:22;;;;;;;1.10;0.98;;;2.60;83.50;;;;;;5015243;28;20509;-79
2020/12/25 05:31:49;;;;;;;1.65;1.20;;;2.50;84.20;;;;;;5016444;28;20502;-79
2020/12/25 05:34:17;;;;;;;1.02;0.90;;;2.50;84.60;;;;;;5015122;28;20030;-79
2020/12/25 05:36:52;;;;;;;0.90;0.88;;;2.50;84.20;;;;;;5016379;28;20124;-79
2020/12/25 05:39:44;;;;;;;2.10;1.63;;;2.50;84.50;;;;;;5016396;28;20032;-79
2020/12/25 05:42:09;;;;;;;3.25;2.08;;;2.50;84.70;;;;;;5013297;28;20058;-78
2020/12/25 05:44:48;;;;;;;3.67;1.50;;;2.40;85.00;;;;;;5016235;28;20481;-79
2020/12/25 05:47:15;;;;;;;1.13;0.93;;;2.50;85.20;;;;;;5015994;28;20034;-78
2020/12/25 05:49:40;;;;;;;1.23;1.13;;;2.40;85.00;;;;;;5016270;28;20037;-78
2020/12/25 05:52:06;;;;;;;1.38;1.15;;;2.40;85.00;;;;;;5016172;28;20025;-78
2020/12/25 05:54:33;;;;;;;1.33;1.15;;;2.40;85.30;;;;;;5015919;28;20026;-78
2020/12/25 05:56:59;;;;;;;6.25;1.80;;;2.50;85.40;;;;;;5016121;28;20030;-78
2020/12/25 05:59:27;;;;;;;2.25;1.27;;;2.50;85.40;;;;;;5015995;28;20032;-77
2020/12/25 06:01:58;;;;;;;2.13;1.50;;;2.60;85.40;;;;;;5016193;28;20402;-79
2020/12/25 06:04:26;;;;;;;3.28;2.03;;;2.60;85.20;;;;;;5015758;28;20494;-80
2020/12/25 06:06:52;;;;;;;2.55;1.30;;;2.70;85.20;;;;;;5015941;28;20061;-79
2020/12/25 06:09:19;;;;;;;2.95;1.70;;;2.70;84.70;;;;;;5015775;28;20044;-78
2020/12/25 06:11:50;;;;;;;1.60;1.10;;;2.60;84.50;;;;;;5015706;28;20494;-79
2020/12/25 06:14:16;;;;;;;2.63;1.05;;;2.60;84.40;;;;;;5015744;28;20417;-80
2020/12/25 06:16:52;;;;;;;1.77;1.23;;;2.60;84.50;;;;;;5015714;28;20037;-80
2020/12/25 06:19:53;;;;;;;1.90;1.02;;;2.70;84.70;;;;;;5015675;28;20025;-78
2020/12/25 06:22:32;;;;;;;2.45;1.20;;;2.60;84.60;;;;;;5014518;28;20022;-80
2020/12/25 06:25:00;;;;;;;1.17;1.02;;;2.70;84.50;;;;;;5014274;28;20018;-81
2020/12/25 06:27:27;;;;;;;1.40;1.10;;;2.60;84.50;;;;;;5015405;28;20041;-81
2020/12/25 06:29:56;;;;;;;3.20;1.42;;;2.60;84.60;;;;;;5015556;28;20371;-81
2020/12/25 06:32:25;;;;;;;1.05;1.00;;;2.50;85.10;;;;;;5014140;28;20387;-81
2020/12/25 06:34:53;;;;;;;1.17;1.10;;;2.50;85.10;;;;;;5015392;28;20025;-79
2020/12/25 06:37:19;;;;;;;1.77;1.00;;;2.50;85.30;;;;;;5014111;28;20022;-78
2020/12/25 06:39:52;;;;;;;0.93;0.88;;;2.40;85.60;;;;;;5015232;28;20501;-77
2020/12/25 06:42:32;;;;;;;3.67;1.20;;;2.40;85.60;;;;;;5014041;28;20398;-78
2020/12/25 06:45:11;;;;;;;1.38;1.00;;;2.50;85.60;;;;;;5015353;28;20026;-77
2020/12/25 06:47:39;;;;;;;1.23;1.00;;;2.60;85.50;;;;;;5016378;28;20042;-79
2020/12/25 06:50:12;;;;;;;1.25;0.80;;;2.60;85.40;;;;;;5014666;28;20026;-80
2020/12/25 06:52:55;;;;;;;1.23;1.00;;;2.60;85.20;;;;;;5015014;28;20022;-78
2020/12/25 06:55:22;;;;;;;3.33;1.60;;;2.60;85.20;;;;;;5015127;28;20026;-79
2020/12/25 06:57:53;;;;;;;1.33;1.20;;;2.70;85.20;;;;;;5014980;28;20108;-79
2020/12/25 07:00:22;;;;;;;1.45;1.10;;;2.70;84.90;;;;;;5014893;28;20109;-80
2020/12/25 07:02:48;;;;;;;1.05;0.95;;;2.70;84.90;;;;;;5013438;28;20031;-79
2020/12/25 07:05:14;;;;;;;1.52;1.02;;;2.70;85.00;;;;;;5014480;28;20037;-80
2020/12/25 07:07:40;;;;;;;2.42;1.40;;;2.80;84.90;;;;;;5014378;28;20088;-80
2020/12/25 07:10:10;;;;;;;1.55;1.30;;;2.70;84.90;;;;;;5014600;28;20033;-81
2020/12/25 07:12:36;;;;;;;2.85;1.50;;;2.70;85.00;;;;;;5014349;28;20026;-79
2020/12/25 07:15:04;;;;;;;2.72;1.55;;;2.70;85.00;;;;;;5014550;28;20180;-79
2020/12/25 07:17:29;;;;;;;1.35;1.10;;;2.70;85.00;;;;;;5014343;28;20386;-81
2020/12/25 07:19:55;;;;;;;1.85;1.33;;;2.70;85.20;;;;;;5014315;28;20033;-82
2020/12/25 07:22:21;;;;;;;1.42;1.25;;;2.80;85.10;;;;;;5013002;28;20030;-79
2020/12/25 07:24:47;;;;;;;3.65;2.30;;;2.90;85.00;;;;;;5012874;28;20022;-80
2020/12/25 07:27:14;;;;;;;3.67;2.50;;;2.90;84.90;;;;;;5014131;28;20080;-81
2020/12/25 07:29:41;;;;;;;5.45;2.67;;;3.00;84.70;;;;;;5013410;28;20080;-82
2020/12/25 07:32:14;;;;;;;3.88;2.40;;;3.00;84.40;;;;;;5012606;28;20026;-82
2020/12/25 07:34:40;;;;;;;3.85;2.92;;;3.00;84.20;;;;;;5012667;28;20355;-82
2020/12/25 07:37:10;;;;;;;4.68;3.20;;;3.00;83.80;;;;;;5014040;28;20025;-81
2020/12/25 07:39:36;;;;;;;8.05;4.05;;;3.00;83.80;;;;;;5013778;28;20029;-82
2020/12/25 07:42:01;;;;;;;17.38;6.82;;;3.00;83.60;;;;;;5012964;28;20025;-82
2020/12/25 07:44:27;;;;;;;11.27;5.65;;;3.00;83.50;;;;;;5013936;28;20491;-81
2020/12/25 07:46:52;;;;;;;13.70;6.30;;;2.90;83.80;;;;;;5012440;28;20034;-81
2020/12/25 07:49:19;;;;;;;13.38;5.78;;;2.90;84.90;;;;;;5013818;28;20018;-81
2020/12/25 07:51:49;;;;;;;11.13;4.70;;;2.90;84.20;;;;;;5013795;28;20441;-81
2020/12/25 07:54:16;;;;;;;11.40;5.35;;;2.80;84.00;;;;;;5013628;28;20497;-78
2020/12/25 07:56:42;;;;;;;7.07;3.45;;;2.80;84.20;;;;;;5013542;28;20068;-81
2020/12/25 07:59:07;;;;;;;3.90;2.50;;;2.80;84.50;;;;;;5013685;28;20026;-80
2020/12/25 08:01:34;;;;;;;4.30;2.15;;;2.80;84.90;;;;;;5013481;28;20018;-80
2020/12/25 08:04:01;;;;;;;1.60;1.30;;;2.70;84.90;;;;;;5013526;28;20410;-81
2020/12/25 08:06:28;;;;;;;4.38;3.22;;;2.70;84.40;;;;;;5013284;28;20049;-81
2020/12/25 08:09:04;;;;;;;4.43;2.40;;;2.60;84.60;;;;;;5013591;28;20026;-81
2020/12/25 08:11:31;;;;;;;4.05;2.72;;;2.60;85.00;;;;;;5013307;28;20022;-78
2020/12/25 08:14:06;;;;;;;2.78;2.33;;;2.60;85.20;;;;;;5013454;28;20024;-76
2020/12/25 08:16:35;;;;;;;2.25;1.65;;;2.60;85.20;;;;;;5012133;28;20442;-78
2020/12/25 08:19:02;;;;;;;3.08;2.20;;;2.70;85.00;;;;;;5013453;28;20097;-80
2020/12/25 08:21:33;;;;;;;3.45;2.20;;;2.70;84.80;;;;;;5011985;28;20064;-77
2020/12/25 08:24:01;;;;;;;3.13;2.67;;;2.70;84.50;;;;;;5013142;28;20018;-79
2020/12/25 08:26:33;;;;;;;5.05;2.63;;;2.80;84.50;;;;;;5013034;28;20202;-76
2020/12/25 08:28:59;;;;;;;3.25;2.00;;;2.70;84.80;;;;;;5012093;28;20101;-76
2020/12/25 08:31:25;;;;;;;4.53;2.08;;;2.70;85.70;;;;;;5013142;28;20113;-77
2020/12/25 08:33:54;;;;;;;6.20;3.50;;;3.00;88.60;;;;;;5012971;28;20022;-78
2020/12/25 08:36:21;;;;;;;2.50;1.45;;;3.50;92.30;;;;;;5013200;28;20029;-78
2020/12/25 08:38:47;;;;;;;3.20;1.50;;;3.80;88.40;;;;;;5013116;28;20029;-76
2020/12/25 08:41:13;;;;;;;3.88;2.05;;;4.20;86.00;;;;;;5013048;28;20371;-77
2020/12/25 08:43:39;;;;;;;3.55;1.23;;;4.60;85.60;;;;;;5013654;28;20045;-77
2020/12/25 08:46:05;;;;;;;2.47;1.70;;;4.80;81.70;;;;;;5019122;28;20026;-77
2020/12/25 08:48:32;;;;;;;13.45;6.78;;;5.00;79.60;;;;;;5019604;28;20060;-77
2020/12/25 08:51:15;;;;;;;2.90;2.22;;;5.20;77.80;;;;;;5019623;28;20028;-77
2020/12/25 08:53:53;;;;;;;3.70;1.30;;;5.20;75.60;;;;;;5017935;28;20071;-77
2020/12/25 08:56:25;;;;;;;2.72;1.92;;;4.70;74.30;;;;;;5019470;28;20045;-77
2020/12/25 08:59:07;;;;;;;2.58;1.45;;;4.40;74.80;;;;;;5019656;28;20029;-77
2020/12/25 09:01:37;;;;;;;1.35;1.20;;;4.00;76.30;;;;;;5019359;28;20041;-77
2020/12/25 09:04:04;;;;;;;2.55;1.70;;;3.70;77.60;;;;;;5019333;28;20030;-77
2020/12/25 09:06:30;;;;;;;1.50;1.40;;;3.50;79.30;;;;;;5018912;28;20054;-77
2020/12/25 09:08:56;;;;;;;2.53;2.00;;;3.40;80.10;;;;;;5019336;28;20026;-77
2020/12/25 09:11:24;;;;;;;3.45;1.63;;;3.20;81.00;;;;;;5019268;28;20423;-77
2020/12/25 09:13:51;;;;;;;1.90;1.70;;;3.20;81.40;;;;;;5019289;28;20029;-77
2020/12/25 09:16:17;;;;;;;2.17;1.60;;;2.90;82.20;;;;;;5019204;28;20032;-77
2020/12/25 09:18:44;;;;;;;2.08;1.38;;;2.90;83.00;;;;;;5019090;28;20076;-78
2020/12/25 09:21:11;;;;;;;1.60;1.50;;;3.00;83.10;;;;;;5019053;28;20482;-78
2020/12/25 09:23:37;;;;;;;2.20;1.70;;;3.00;83.10;;;;;;5019239;28;20053;-79
2020/12/25 09:26:04;;;;;;;2.00;1.75;;;3.00;83.10;;;;;;5019147;28;20132;-77
2020/12/25 09:28:30;;;;;;;2.45;2.08;;;3.00;83.20;;;;;;5019283;28;20018;-77
2020/12/25 09:30:55;;;;;;;3.35;2.20;;;3.00;83.30;;;;;;5017915;28;20117;-83
2020/12/25 09:33:22;;;;;;;3.40;1.90;;;3.00;83.40;;;;;;5019370;28;20065;-84
2020/12/25 09:35:49;;;;;;;5.43;2.78;;;3.10;83.20;;;;;;5019112;28;20026;-83
2020/12/25 09:38:14;;;;;;;2.72;2.25;;;3.00;83.10;;;;;;5019384;28;20028;-84
2020/12/25 09:40:40;;;;;;;3.03;2.22;;;3.00;83.20;;;;;;5019027;28;20025;-84
2020/12/25 09:43:06;;;;;;;12.73;7.15;;;3.00;83.10;;;;;;5017681;28;20080;-83
2020/12/25 09:45:32;;;;;;;9.60;6.03;;;3.00;83.00;;;;;;5018667;28;20092;-83
2020/12/25 09:47:57;;;;;;;7.28;4.35;;;3.10;83.20;;;;;;5018903;28;20029;-81
2020/12/25 09:50:23;;;;;;;5.13;2.63;;;3.10;83.20;;;;;;5018500;28;20479;-81
2020/12/25 09:52:49;;;;;;;6.10;3.05;;;3.10;83.20;;;;;;5018897;28;20483;-81
2020/12/25 09:55:15;;;;;;;3.92;2.55;;;3.20;82.90;;;;;;5018422;28;20018;-84
2020/12/25 09:57:40;;;;;;;2.95;2.55;;;3.20;82.80;;;;;;5016126;28;20609;-80
2020/12/25 10:00:14;;;;;;;4.43;2.90;;;3.20;82.50;;;;;;5014535;28;20117;-80
2020/12/25 10:02:40;;;;;;;5.00;2.35;;;3.20;82.40;;;;;;5015882;28;20030;-81
2020/12/25 10:05:06;;;;;;;5.53;3.05;;;3.10;82.90;;;;;;5016236;28;20033;-79
2020/12/25 10:07:32;;;;;;;5.85;3.60;;;3.10;83.00;;;;;;5016045;28;20107;-84
2020/12/25 10:09:58;;;;;;;6.97;5.10;;;3.10;82.90;;;;;;5016776;28;20034;-85
2020/12/25 10:12:24;;;;;;;6.00;4.10;;;3.00;83.40;;;;;;5016002;28;20034;-84
2020/12/25 10:14:49;;;;;;;5.50;4.10;;;2.90;83.40;;;;;;5018538;28;20022;-81
2020/12/25 10:17:15;;;;;;;12.00;6.03;;;2.70;83.90;;;;;;5021836;28;20018;-79
2020/12/25 10:19:40;;;;;;;5.97;5.03;;;2.60;84.60;;;;;;5019873;28;20029;-79
2020/12/25 10:22:06;;;;;;;7.20;4.75;;;2.60;85.00;;;;;;5018809;28;20127;-85
2020/12/25 10:24:32;;;;;;;6.22;4.63;;;2.60;85.40;;;;;;5016568;28;20025;-84
2020/12/25 10:26:57;;;;;;;5.40;4.25;;;2.70;85.70;;;;;;5016838;28;20026;-83
2020/12/25 10:29:23;;;;;;;5.10;4.20;;;2.70;85.50;;;;;;5016451;28;20014;-84
2020/12/25 10:31:49;;;;;;;6.70;4.35;;;2.60;85.40;;;;;;5015491;28;20022;-76
2020/12/25 10:34:15;;;;;;;5.78;4.30;;;2.70;85.50;;;;;;5015283;28;20018;-76
2020/12/25 10:36:41;;;;;;;7.80;5.50;;;2.80;85.30;;;;;;5015300;28;20112;-76
2020/12/25 10:39:08;;;;;;;8.25;5.97;;;2.90;84.90;;;;;;5015305;28;20445;-78
2020/12/25 10:41:34;;;;;;;6.90;5.53;;;2.80;84.80;;;;;;5015187;28;20501;-76
2020/12/25 10:43:59;;;;;;;8.77;5.47;;;2.70;84.90;;;;;;5015185;28;20026;-76
2020/12/25 10:46:26;;;;;;;7.30;5.43;;;2.60;85.50;;;;;;5014900;28;20113;-75
2020/12/25 10:48:51;;;;;;;7.80;5.63;;;2.50;85.90;;;;;;5014262;28;20478;-76
2020/12/25 10:51:18;;;;;;;8.25;5.80;;;2.40;86.20;;;;;;5014868;28;20030;-76
2020/12/25 10:53:44;;;;;;;8.90;6.15;;;2.40;87.00;;;;;;5014832;28;20022;-76
2020/12/25 10:56:18;;;;;;;12.10;6.88;;;2.30;87.00;;;;;;5014855;28;20089;-76
2020/12/25 10:58:43;;;;;;;7.45;6.13;;;2.40;87.00;;;;;;5014750;28;20021;-77
2020/12/25 11:01:09;;;;;;;10.10;7.05;;;2.40;87.20;;;;;;5014790;28;20033;-77
2020/12/25 11:03:34;;;;;;;7.55;5.93;;;2.50;87.10;;;;;;5014652;28;20026;-76
2020/12/25 11:06:00;;;;;;;10.90;7.43;;;2.50;86.80;;;;;;5014461;28;20037;-76
2020/12/25 11:08:25;;;;;;;10.05;7.50;;;2.40;86.70;;;;;;5012466;28;20053;-77
2020/12/25 11:10:51;;;;;;;12.63;7.70;;;2.50;86.60;;;;;;5013215;28;20022;-77
2020/12/25 11:13:16;;;;;;;12.25;7.60;;;2.50;86.20;;;;;;5014457;28;20509;-78
2020/12/25 11:15:42;;;;;;;10.65;7.07;;;2.50;86.60;;;;;;5014364;28;20055;-78
2020/12/25 11:18:07;;;;;;;9.63;6.93;;;2.60;86.30;;;;;;5014345;28;20025;-77
2020/12/25 11:20:33;;;;;;;13.02;7.45;;;2.60;86.10;;;;;;5014259;28;20025;-77
2020/12/25 11:22:58;;;;;;;10.65;7.00;;;2.50;85.90;;;;;;5014286;28;20026;-78
2020/12/25 11:25:24;;;;;;;10.70;7.50;;;2.50;86.20;;;;;;5014144;28;20093;-78
2020/12/25 11:27:49;;;;;;;10.13;6.82;;;2.50;86.10;;;;;;5014466;28;20090;-79
2020/12/25 11:30:15;;;;;;;10.18;7.28;;;2.70;86.20;;;;;;5014565;28;20068;-78
2020/12/25 11:32:40;;;;;;;11.40;7.72;;;2.80;85.50;;;;;;5014780;28;20084;-79
2020/12/25 11:35:06;;;;;;;12.93;8.45;;;2.80;84.80;;;;;;5014673;28;20486;-79
2020/12/25 11:37:32;;;;;;;14.77;8.20;;;2.90;84.10;;;;;;5014717;28;20032;-78
2020/12/25 11:39:58;;;;;;;13.25;9.05;;;2.70;84.30;;;;;;5013541;28;20038;-77
2020/12/25 11:42:24;;;;;;;12.43;8.43;;;2.70;84.90;;;;;;5014012;28;20033;-79
2020/12/25 11:44:49;;;;;;;17.92;9.50;;;2.60;84.90;;;;;;5014028;28;20022;-78
2020/12/25 11:47:15;;;;;;;12.38;9.07;;;2.60;85.40;;;;;;5013932;28;20038;-78
2020/12/25 11:49:40;;;;;;;12.82;9.13;;;2.60;85.70;;;;;;5013749;28;20026;-78
2020/12/25 11:52:06;;;;;;;15.77;9.95;;;2.60;85.70;;;;;;5013879;28;20033;-79
2020/12/25 11:54:31;;;;;;;12.88;8.52;;;2.60;85.40;;;;;;5012511;28;20049;-77
2020/12/25 11:56:57;;;;;;;11.43;7.95;;;2.70;84.90;;;;;;5013584;28;20030;-77
2020/12/25 11:59:22;;;;;;;13.02;8.18;;;2.60;84.60;;;;;;5013155;28;20037;-77
2020/12/25 12:01:48;;;;;;;14.43;8.90;;;2.70;84.60;;;;;;5012078;28;20036;-77
2020/12/25 12:04:14;;;;;;;12.57;8.27;;;2.60;84.20;;;;;;5013674;28;20559;-79
2020/12/25 12:06:39;;;;;;;13.45;8.65;;;2.60;84.20;;;;;;5015992;28;20076;-77
2020/12/25 12:09:05;;;;;;;12.63;8.60;;;2.70;84.20;;;;;;5032430;28;20053;-78
2020/12/25 12:11:33;;;;;;;12.75;7.93;;;2.70;84.00;;;;;;5032556;28;20057;-81
2020/12/25 12:13:59;;;;;;;15.30;9.02;;;2.70;83.90;;;;;;5014929;28;20017;-80
2020/12/25 12:16:25;;;;;;;12.27;8.05;;;2.80;83.80;;;;;;5032731;28;20384;-78
2020/12/25 12:18:53;;;;;;;13.25;8.82;;;2.80;83.80;;;;;;5032112;28;20121;-79
2020/12/25 12:21:19;;;;;;;14.82;9.15;;;2.80;83.50;;;;;;5032719;28;20067;-78
2020/12/25 12:23:44;;;;;;;14.68;8.48;;;2.80;83.10;;;;;;5014982;28;20029;-78
2020/12/25 12:26:10;;;;;;;15.65;10.38;;;2.80;83.20;;;;;;5032819;28;20060;-79
2020/12/25 12:28:36;;;;;;;12.27;8.32;;;2.90;82.90;;;;;;5032628;28;20381;-78
2020/12/25 12:31:02;;;;;;;16.15;9.48;;;2.90;82.80;;;;;;5032615;28;20109;-80
2020/12/25 12:33:28;;;;;;;18.40;9.77;;;3.00;82.70;;;;;;5032587;28;20481;-78
2020/12/25 12:35:53;;;;;;;12.50;8.60;;;3.00;82.50;;;;;;5032605;28;20052;-79
2020/12/25 12:38:19;;;;;;;18.45;10.57;;;3.00;82.30;;;;;;5032525;28;20516;-78
2020/12/25 12:40:45;;;;;;;16.02;8.80;;;3.10;82.20;;;;;;5032552;28;20121;-78
2020/12/25 12:43:10;;;;;;;15.55;9.00;;;3.00;81.50;;;;;;5032485;28;20122;-79
2020/12/25 12:45:36;;;;;;;14.45;9.48;;;3.00;81.40;;;;;;5032369;28;20030;-78
2020/12/25 12:48:01;;;;;;;12.48;8.13;;;2.90;81.00;;;;;;5032176;28;20022;-75
2020/12/25 12:50:27;;;;;;;14.00;8.45;;;2.80;80.70;;;;;;5032294;28;20079;-75
2020/12/25 12:52:52;;;;;;;18.40;8.93;;;2.80;81.00;;;;;;5032434;28;20036;-80
2020/12/25 12:55:18;;;;;;;15.48;8.75;;;2.80;81.20;;;;;;5032530;28;20018;-79